Terminal Aerodrome Forecast
Issued by NWS

Home | Current Version | Previous Version | Text Only | Print | Product List | Glossary On
Versions: 1 2 3 4 5 6 7 8 9 10 11 12 13 14 15 16 17 18 19 20 21
667
FTUS42 KTBW 251731
TAFLAL
TAF
KLAL 251731Z 2518/2618 29006KT P6SM SCT030
     FM260300 32006KT P6SM SCT150
     FM260600 36007KT 4SM BR FEW150
     FM261200 04009KT P6SM SKC=

USA.gov is the U.S. government's official web portal to all federal, state and local government web resources and services.